createdAt,value
2023-02-24T00:00:32.322Z,8.25
2023-02-24T00:03:05.999Z,8.31
2023-02-24T00:05:39.227Z,8.36
2023-02-24T00:08:07.637Z,8.40
2023-02-24T00:10:37.635Z,8.44
2023-02-24T00:13:06.114Z,8.48
2023-02-24T00:15:34.358Z,8.53
2023-02-24T00:18:07.226Z,8.56
2023-02-24T00:20:37.428Z,8.60
2023-02-24T00:23:05.570Z,8.62
2023-02-24T00:25:33.801Z,8.66
2023-02-24T00:28:02.498Z,8.64
2023-02-24T00:30:33.225Z,8.71
2023-02-24T00:33:03.478Z,8.72
2023-02-24T00:35:32.587Z,8.67
2023-02-24T00:38:02.069Z,8.72
2023-02-24T00:40:30.852Z,8.67
2023-02-24T00:43:00.806Z,8.75
2023-02-24T00:45:31.030Z,8.80
2023-02-24T00:47:59.370Z,8.72
2023-02-24T00:50:27.534Z,8.73
2023-02-24T00:52:55.719Z,8.77
2023-02-24T00:55:27.489Z,8.75
2023-02-24T00:57:56.339Z,8.77
2023-02-24T01:00:26.271Z,8.74
2023-02-24T01:02:54.439Z,8.65
2023-02-24T01:05:22.518Z,8.73
2023-02-24T01:07:50.606Z,8.76
2023-02-24T01:10:20.915Z,8.59
2023-02-24T01:12:54.082Z,8.66
2023-02-24T01:15:24.151Z,8.53
2023-02-24T01:17:52.396Z,8.64
2023-02-24T01:20:20.781Z,8.61
2023-02-24T01:22:51.054Z,8.60
2023-02-24T01:25:20.531Z,8.66
2023-02-24T01:27:50.693Z,8.54
2023-02-24T01:30:18.990Z,8.30
2023-02-24T01:32:48.328Z,8.10
2023-02-24T01:35:17.856Z,7.60
2023-02-24T01:37:46.433Z,7.64
2023-02-24T01:40:21.008Z,7.87
2023-02-24T01:42:51.768Z,8.17
2023-02-24T01:45:25.198Z,8.43
2023-02-24T01:47:57.474Z,8.36
2023-02-24T01:50:26.462Z,8.40
2023-02-24T01:52:58.948Z,8.59
2023-02-24T01:55:32.106Z,8.66
2023-02-24T01:58:06.026Z,8.72
2023-02-24T02:00:38.362Z,8.75
2023-02-24T02:03:17.291Z,8.80
2023-02-24T02:05:48.675Z,8.75
2023-02-24T02:08:19.617Z,8.74
2023-02-24T02:10:49.368Z,8.69
2023-02-24T02:13:21.578Z,8.67
2023-02-24T02:16:06.984Z,8.85
2023-02-24T02:18:48.807Z,8.89
2023-02-24T02:21:45.033Z,8.81
2023-02-24T02:24:48.492Z,8.66
2023-02-24T02:27:29.479Z,8.44
2023-02-24T02:30:43.957Z,8.59
2023-02-24T02:33:47.984Z,8.78
2023-02-24T02:36:23.922Z,8.69
2023-02-24T02:38:58.602Z,8.68
2023-02-24T02:41:30.490Z,8.67
2023-02-24T02:44:07.562Z,8.80
2023-02-24T02:46:42.856Z,8.83
2023-02-24T02:49:20.766Z,8.81
2023-02-24T02:51:52.857Z,8.70
2023-02-24T02:54:28.279Z,8.73
2023-02-24T02:57:02.501Z,8.84
2023-02-24T02:59:33.993Z,8.85
2023-02-24T03:02:11.852Z,8.58
2023-02-24T03:04:47.249Z,8.34
2023-02-24T03:07:18.050Z,8.25
2023-02-24T03:09:51.024Z,8.42
2023-02-24T03:12:23.604Z,8.46
2023-02-24T03:14:57.609Z,8.61
2023-02-24T03:17:28.035Z,8.79
2023-02-24T03:20:16.335Z,8.88
2023-02-24T03:22:49.977Z,8.74
2023-02-24T03:25:24.704Z,8.78
2023-02-24T03:28:01.262Z,8.74
2023-02-24T03:30:36.686Z,8.78
2023-02-24T03:33:11.137Z,8.76
2023-02-24T03:35:42.630Z,8.68
2023-02-24T03:38:11.919Z,8.57
2023-02-24T03:40:43.472Z,8.40
2023-02-24T03:43:22.271Z,8.49
2023-02-24T03:45:51.129Z,8.42
2023-02-24T03:48:20.196Z,8.54
2023-02-24T03:50:49.737Z,8.35
2023-02-24T03:53:42.149Z,8.66
2023-02-24T03:56:24.272Z,8.55
2023-02-24T03:59:05.720Z,8.24
2023-02-24T04:01:43.244Z,8.42
2023-02-24T04:04:19.269Z,8.66
2023-02-24T04:07:01.314Z,8.67
2023-02-24T04:09:39.158Z,8.73
2023-02-24T04:12:18.837Z,8.66
2023-02-24T04:14:57.030Z,8.86
2023-02-24T04:17:30.888Z,8.79
2023-02-24T04:20:09.261Z,8.84
2023-02-24T04:22:42.915Z,8.77
2023-02-24T04:25:13.866Z,8.84
2023-02-24T04:27:45.324Z,8.88
2023-02-24T04:30:18.019Z,8.62
2023-02-24T04:32:46.417Z,8.75
2023-02-24T04:35:17.278Z,8.80
2023-02-24T04:37:52.104Z,8.91
2023-02-24T04:40:23.115Z,8.90
2023-02-24T04:42:52.637Z,8.93
2023-02-24T04:45:22.843Z,8.81
2023-02-24T04:47:56.282Z,8.80
2023-02-24T04:50:26.812Z,8.66
2023-02-24T04:52:57.786Z,8.88
2023-02-24T04:55:29.597Z,8.75
2023-02-24T04:57:58.345Z,8.60
2023-02-24T05:00:33.499Z,8.62
2023-02-24T05:03:06.047Z,8.74
2023-02-24T05:05:34.343Z,8.63
2023-02-24T05:08:06.534Z,8.71
2023-02-24T05:10:39.990Z,8.76
2023-02-24T05:13:09.314Z,8.91
2023-02-24T05:15:44.746Z,8.81
2023-02-24T05:18:17.216Z,9.15
2023-02-24T05:21:06.034Z,9.18
2023-02-24T05:23:39.412Z,9.08
2023-02-24T05:26:09.547Z,9.02
2023-02-24T05:28:38.736Z,9.25
2023-02-24T05:31:08.774Z,9.13
2023-02-24T05:33:38.296Z,9.01
2023-02-24T05:36:08.695Z,8.89
2023-02-24T05:38:39.094Z,8.80
2023-02-24T05:41:08.356Z,8.94
2023-02-24T05:43:39.408Z,8.98
2023-02-24T05:46:07.502Z,8.84
2023-02-24T05:48:36.123Z,8.73
2023-02-24T05:51:08.023Z,8.54
2023-02-24T05:53:36.623Z,8.66
2023-02-24T05:56:06.412Z,9.01
2023-02-24T05:58:34.552Z,9.06
2023-02-24T06:01:09.924Z,8.86
2023-02-24T06:03:38.146Z,8.97
2023-02-24T06:06:09.130Z,8.79
2023-02-24T06:08:42.435Z,8.94
2023-02-24T06:11:13.115Z,8.79
2023-02-24T06:13:42.273Z,8.96
2023-02-24T06:16:13.196Z,8.92
2023-02-24T06:18:41.960Z,8.64
2023-02-24T06:21:12.576Z,8.67
2023-02-24T06:23:41.555Z,8.76
2023-02-24T06:26:13.211Z,9.03
2023-02-24T06:28:43.356Z,9.07
2023-02-24T06:31:11.687Z,9.27
2023-02-24T06:33:40.314Z,9.19
2023-02-24T06:36:09.275Z,9.25
2023-02-24T06:38:40.075Z,9.30
2023-02-24T06:41:11.844Z,9.05
2023-02-24T06:43:43.399Z,9.12
2023-02-24T06:46:13.264Z,9.28
2023-02-24T06:48:41.808Z,9.48
2023-02-24T06:51:13.763Z,9.41
2023-02-24T06:53:44.633Z,9.36
2023-02-24T06:56:15.934Z,9.43
2023-02-24T06:58:47.621Z,9.58
2023-02-24T07:01:18.439Z,9.43
2023-02-24T07:04:03.442Z,9.17
2023-02-24T07:06:34.542Z,9.51
2023-02-24T07:09:07.179Z,9.46
2023-02-24T07:11:36.334Z,9.54
2023-02-24T07:14:06.631Z,9.12
2023-02-24T07:16:35.671Z,8.94
2023-02-24T07:19:09.785Z,9.45
2023-02-24T07:21:40.557Z,9.26
2023-02-24T07:24:09.595Z,9.29
2023-02-24T07:26:41.887Z,9.68
2023-02-24T07:29:13.166Z,9.41
2023-02-24T07:31:43.129Z,9.33
2023-02-24T07:34:15.157Z,9.45
2023-02-24T07:36:49.655Z,9.37
2023-02-24T07:39:19.024Z,9.53
2023-02-24T07:41:49.689Z,9.26
2023-02-24T07:44:20.826Z,9.33
2023-02-24T07:46:50.128Z,9.53
2023-02-24T07:49:20.891Z,9.19
2023-02-24T07:51:52.648Z,9.19
2023-02-24T07:54:22.302Z,9.51
2023-02-24T07:56:57.775Z,9.39
2023-02-24T07:59:29.014Z,9.08
2023-02-24T08:01:57.773Z,9.27
2023-02-24T08:04:27.865Z,9.51
2023-02-24T08:06:57.566Z,9.51
2023-02-24T08:09:45.076Z,9.35
2023-02-24T08:12:17.957Z,9.69
2023-02-24T08:14:51.224Z,9.76
2023-02-24T08:17:21.437Z,9.64
2023-02-24T08:19:51.096Z,9.66
2023-02-24T08:22:24.265Z,9.84
2023-02-24T08:24:54.130Z,10.10
2023-02-24T08:27:24.995Z,10.25
2023-02-24T08:29:59.964Z,10.09
2023-02-24T08:32:34.098Z,10.11
2023-02-24T08:35:04.921Z,10.03
2023-02-24T08:37:40.661Z,9.88
2023-02-24T08:40:32.424Z,10.02
2023-02-24T08:43:16.084Z,10.03
2023-02-24T08:45:50.441Z,10.05
2023-02-24T08:48:32.313Z,10.51
2023-02-24T08:51:04.680Z,10.51
2023-02-24T08:53:33.270Z,9.97
2023-02-24T08:56:09.684Z,10.37
2023-02-24T08:58:41.128Z,10.42
2023-02-24T09:01:19.872Z,10.05
2023-02-24T09:03:52.397Z,9.60
2023-02-24T09:06:25.540Z,9.52
2023-02-24T09:09:17.512Z,9.39
2023-02-24T09:11:47.824Z,9.65
2023-02-24T09:14:26.430Z,9.75
2023-02-24T09:17:06.971Z,9.97
2023-02-24T09:19:58.494Z,9.78
2023-02-24T09:22:41.009Z,10.06
2023-02-24T09:25:21.771Z,9.75
2023-02-24T09:27:56.068Z,9.81
2023-02-24T09:30:51.137Z,10.19
2023-02-24T09:33:23.849Z,9.80
2023-02-24T09:36:13.846Z,9.89
2023-02-24T09:39:02.002Z,10.46
2023-02-24T09:41:45.324Z,10.47
2023-02-24T09:44:18.597Z,10.63
2023-02-24T09:46:55.791Z,10.46
2023-02-24T09:49:40.042Z,10.10
2023-02-24T09:52:17.167Z,10.54
2023-02-24T09:55:06.198Z,10.04
2023-02-24T09:58:01.833Z,10.21
2023-02-24T10:00:33.720Z,10.15
2023-02-24T10:03:19.734Z,9.99
2023-02-24T10:05:59.172Z,9.59
2023-02-24T10:08:38.315Z,9.74
2023-02-24T10:11:09.794Z,9.53
2023-02-24T10:13:43.595Z,9.45
2023-02-24T10:16:15.689Z,9.07
2023-02-24T10:18:48.538Z,9.44
2023-02-24T10:21:34.987Z,9.17
2023-02-24T10:24:14.466Z,8.82
2023-02-24T10:27:00.038Z,9.36
2023-02-24T10:29:43.385Z,9.53
2023-02-24T10:32:24.188Z,9.23
2023-02-24T10:34:53.285Z,9.08
2023-02-24T10:37:29.050Z,9.48
2023-02-24T10:39:59.442Z,9.01
2023-02-24T10:42:31.857Z,9.43
2023-02-24T10:45:18.015Z,9.72
2023-02-24T10:47:56.821Z,9.50
2023-02-24T10:50:30.381Z,9.28
2023-02-24T10:53:26.474Z,9.53
2023-02-24T10:56:15.206Z,9.61
2023-02-24T10:58:56.913Z,10.12
2023-02-24T11:01:45.075Z,9.95
2023-02-24T11:04:33.588Z,10.49
2023-02-24T11:07:09.844Z,10.38
2023-02-24T11:09:52.397Z,10.58
2023-02-24T11:12:41.014Z,10.18
2023-02-24T11:15:46.848Z,10.24
2023-02-24T11:18:18.805Z,10.40
2023-02-24T11:20:51.554Z,10.48
2023-02-24T11:23:23.649Z,11.12
2023-02-24T11:25:59.289Z,10.93
2023-02-24T11:29:06.718Z,10.89
2023-02-24T11:32:00.352Z,10.69
2023-02-24T11:34:37.106Z,11.29
2023-02-24T11:37:17.765Z,11.73
2023-02-24T11:39:56.482Z,11.35
2023-02-24T11:42:28.262Z,11.37
2023-02-24T11:45:02.968Z,12.01
2023-02-24T11:47:37.864Z,12.07
2023-02-24T11:50:19.796Z,11.80
2023-02-24T11:52:50.749Z,11.79
2023-02-24T11:55:28.319Z,12.13
2023-02-24T11:58:01.495Z,12.94
2023-02-24T12:00:33.966Z,13.22
2023-02-24T12:03:07.918Z,12.81
2023-02-24T12:05:42.197Z,12.71
2023-02-24T12:08:16.320Z,12.19
2023-02-24T12:10:49.993Z,12.63
2023-02-24T12:13:28.248Z,12.75
2023-02-24T12:16:04.112Z,12.92
2023-02-24T12:18:36.252Z,12.72
2023-02-24T12:21:08.619Z,11.57
2023-02-24T12:23:39.453Z,11.36
2023-02-24T12:26:17.823Z,11.32
2023-02-24T12:29:18.775Z,11.66
2023-02-24T12:31:57.470Z,11.59
2023-02-24T12:34:43.058Z,11.31
2023-02-24T12:37:50.708Z,11.23
2023-02-24T12:40:31.377Z,11.93
2023-02-24T12:43:13.738Z,11.61
2023-02-24T12:45:52.260Z,11.56
2023-02-24T12:48:39.590Z,11.84
2023-02-24T12:51:14.383Z,11.50
2023-02-24T12:53:47.763Z,11.40
2023-02-24T12:56:22.502Z,11.37
2023-02-24T12:58:53.888Z,11.68
2023-02-24T13:01:30.113Z,11.55
2023-02-24T13:04:23.290Z,12.23
2023-02-24T13:07:04.074Z,11.68
2023-02-24T13:09:38.086Z,10.94
2023-02-24T13:12:18.137Z,10.89
2023-02-24T13:14:47.992Z,10.69
2023-02-24T13:17:23.407Z,11.07
2023-02-24T13:19:53.405Z,10.96
2023-02-24T13:22:25.837Z,10.98
2023-02-24T13:25:16.271Z,10.69
2023-02-24T13:27:45.567Z,10.78
2023-02-24T13:30:37.267Z,10.79
2023-02-24T13:33:21.629Z,10.87
2023-02-24T13:35:51.408Z,10.66
2023-02-24T13:38:27.026Z,10.97
2023-02-24T13:40:55.390Z,11.47
2023-02-24T13:43:28.282Z,12.09
2023-02-24T13:46:00.146Z,12.18
2023-02-24T13:48:56.744Z,12.15
2023-02-24T13:52:03.492Z,12.43
2023-02-24T13:54:56.750Z,12.26
2023-02-24T13:57:48.228Z,12.64
2023-02-24T14:00:27.176Z,12.84
2023-02-24T14:02:55.943Z,12.68
2023-02-24T14:05:29.613Z,12.34
2023-02-24T14:07:58.159Z,12.20
2023-02-24T14:10:28.747Z,12.24
2023-02-24T14:13:05.218Z,12.31
2023-02-24T14:15:34.633Z,12.52
2023-02-24T14:18:05.936Z,12.42
2023-02-24T14:20:37.626Z,12.20
2023-02-24T14:23:22.205Z,12.15
2023-02-24T14:25:55.908Z,12.34
2023-02-24T14:28:26.163Z,12.75
2023-02-24T14:30:58.215Z,12.55
2023-02-24T14:33:30.561Z,12.52
2023-02-24T14:36:01.262Z,11.61
2023-02-24T14:38:32.000Z,12.26
2023-02-24T14:41:00.480Z,12.68
2023-02-24T14:43:29.633Z,12.58
2023-02-24T14:45:58.785Z,12.53
2023-02-24T14:48:28.710Z,12.11
2023-02-24T14:51:03.063Z,12.12
2023-02-24T14:53:35.070Z,12.28
2023-02-24T14:56:06.120Z,12.12
2023-02-24T14:58:39.978Z,12.12
2023-02-24T15:01:20.761Z,12.39
2023-02-24T15:03:52.541Z,12.07
2023-02-24T15:06:26.040Z,12.24
2023-02-24T15:08:59.582Z,12.50
2023-02-24T15:11:30.007Z,12.52
2023-02-24T15:14:01.031Z,11.91
2023-02-24T15:16:34.548Z,12.20
2023-02-24T15:19:03.275Z,12.08
2023-02-24T15:21:33.978Z,12.27
2023-02-24T15:24:03.574Z,12.55
2023-02-24T15:26:33.805Z,11.98
2023-02-24T15:29:03.996Z,11.66
2023-02-24T15:31:32.257Z,10.86
2023-02-24T15:34:02.176Z,11.15
2023-02-24T15:36:35.113Z,10.22
2023-02-24T15:39:06.636Z,9.95
2023-02-24T15:41:42.069Z,9.59
2023-02-24T15:44:29.024Z,9.11
2023-02-24T15:46:57.943Z,8.94
2023-02-24T15:49:26.566Z,8.73
2023-02-24T15:51:59.734Z,8.37
2023-02-24T15:54:32.015Z,8.46
2023-02-24T15:57:01.628Z,8.45
2023-02-24T15:59:30.531Z,8.65
2023-02-24T16:01:58.713Z,8.68
2023-02-24T16:04:27.906Z,8.61
2023-02-24T16:06:58.974Z,8.82
2023-02-24T16:09:33.617Z,9.11
2023-02-24T16:12:03.617Z,9.08
2023-02-24T16:14:32.308Z,9.21
2023-02-24T16:17:02.274Z,9.40
2023-02-24T16:19:30.458Z,9.39
2023-02-24T16:21:59.992Z,9.36
2023-02-24T16:24:28.025Z,9.49
2023-02-24T16:26:56.165Z,9.43
2023-02-24T16:29:24.249Z,9.37
2023-02-24T16:31:52.615Z,9.06
2023-02-24T16:34:20.804Z,9.39
2023-02-24T16:36:49.592Z,9.10
2023-02-24T16:39:19.083Z,9.64
2023-02-24T16:41:47.374Z,9.58
2023-02-24T16:44:15.466Z,9.17
2023-02-24T16:46:45.579Z,9.64
2023-02-24T16:49:19.068Z,9.52
2023-02-24T16:51:47.481Z,9.58
2023-02-24T16:54:15.479Z,9.46
2023-02-24T16:56:45.399Z,9.74
2023-02-24T16:59:13.607Z,9.79
2023-02-24T17:01:41.795Z,9.73
2023-02-24T17:04:11.224Z,9.50
2023-02-24T17:06:39.276Z,9.66
2023-02-24T17:09:07.454Z,9.31
2023-02-24T17:11:35.712Z,9.68
2023-02-24T17:14:05.121Z,9.60
2023-02-24T17:16:33.344Z,9.62
2023-02-24T17:19:01.474Z,9.61
2023-02-24T17:21:29.526Z,9.76
2023-02-24T17:23:58.318Z,9.85
2023-02-24T17:26:26.445Z,9.84
2023-02-24T17:28:54.538Z,9.60
2023-02-24T17:31:24.198Z,9.71
2023-02-24T17:33:52.310Z,9.74
2023-02-24T17:36:20.579Z,9.84
2023-02-24T17:38:49.048Z,9.95
2023-02-24T17:41:17.069Z,9.89
2023-02-24T17:43:45.127Z,9.91
2023-02-24T17:46:13.254Z,9.73
2023-02-24T17:48:42.792Z,9.71
2023-02-24T17:51:15.125Z,9.71
2023-02-24T17:53:43.464Z,9.67
2023-02-24T17:56:12.125Z,9.55
2023-02-24T17:58:40.582Z,9.64
2023-02-24T18:01:09.038Z,9.56
2023-02-24T18:03:38.722Z,9.68
2023-02-24T18:06:10.310Z,9.79
2023-02-24T18:08:39.965Z,9.73
2023-02-24T18:11:10.084Z,9.66
2023-02-24T18:13:38.238Z,9.68
2023-02-24T18:16:10.587Z,9.71
2023-02-24T18:18:39.153Z,9.72
2023-02-24T18:21:09.474Z,9.71
2023-02-24T18:23:40.425Z,9.71
2023-02-24T18:26:12.544Z,9.57
2023-02-24T18:28:41.000Z,9.52
2023-02-24T18:31:14.599Z,9.63
2023-02-24T18:33:42.868Z,9.60
2023-02-24T18:36:13.670Z,9.69
2023-02-24T18:38:41.942Z,9.75
2023-02-24T18:41:12.484Z,9.56
2023-02-24T18:43:40.882Z,9.51
2023-02-24T18:46:12.197Z,9.35
2023-02-24T18:48:41.328Z,9.45
2023-02-24T18:51:09.522Z,9.34
2023-02-24T18:53:39.523Z,9.13
2023-02-24T18:56:08.897Z,9.08
2023-02-24T18:58:38.677Z,8.99
2023-02-24T19:01:13.245Z,9.24
2023-02-24T19:03:41.680Z,9.10
2023-02-24T19:06:10.136Z,9.24
2023-02-24T19:08:40.545Z,9.20
2023-02-24T19:11:10.757Z,9.37
2023-02-24T19:13:39.019Z,9.29
2023-02-24T19:16:11.165Z,9.36
2023-02-24T19:18:39.730Z,8.79
2023-02-24T19:21:09.468Z,8.52
2023-02-24T19:23:39.954Z,9.11
2023-02-24T19:26:16.597Z,8.97
2023-02-24T19:28:44.861Z,8.76
2023-02-24T19:31:14.708Z,9.05
2023-02-24T19:33:43.126Z,9.19
2023-02-24T19:36:12.213Z,9.29
2023-02-24T19:38:43.176Z,9.10
2023-02-24T19:41:11.470Z,9.53
2023-02-24T19:43:41.822Z,9.65
2023-02-24T19:46:12.977Z,9.63
2023-02-24T19:48:41.849Z,9.80
2023-02-24T19:51:12.016Z,9.86
2023-02-24T19:53:40.214Z,9.82
2023-02-24T19:56:09.744Z,9.88
2023-02-24T19:58:38.402Z,9.77
2023-02-24T20:01:09.393Z,9.60
2023-02-24T20:03:37.755Z,9.59
2023-02-24T20:06:08.125Z,9.63
2023-02-24T20:08:36.787Z,9.56
2023-02-24T20:11:06.494Z,9.50
2023-02-24T20:13:36.299Z,9.61
2023-02-24T20:16:06.148Z,9.49
2023-02-24T20:18:34.308Z,9.71
2023-02-24T20:21:03.091Z,9.79
2023-02-24T20:23:32.160Z,9.67
2023-02-24T20:26:01.295Z,9.63
2023-02-24T20:28:30.553Z,9.79
2023-02-24T20:31:06.615Z,9.76
2023-02-24T20:33:34.889Z,9.68
2023-02-24T20:36:07.941Z,9.73
2023-02-24T20:38:36.036Z,9.76
2023-02-24T20:41:04.928Z,9.74
2023-02-24T20:43:33.733Z,9.90
2023-02-24T20:46:11.941Z,9.87
2023-02-24T20:48:40.265Z,9.92
2023-02-24T20:51:09.311Z,9.82
2023-02-24T20:53:54.744Z,9.89
2023-02-24T20:56:25.497Z,9.92
2023-02-24T20:58:59.938Z,9.76
2023-02-24T21:01:30.865Z,9.82
2023-02-24T21:03:59.043Z,9.80
2023-02-24T21:06:28.221Z,9.76
2023-02-24T21:08:56.616Z,9.68
2023-02-24T21:11:25.580Z,9.54
2023-02-24T21:13:54.721Z,9.53
2023-02-24T21:16:23.486Z,9.52
2023-02-24T21:18:53.335Z,9.40
2023-02-24T21:21:22.067Z,8.99
2023-02-24T21:23:50.609Z,9.28
2023-02-24T21:26:19.515Z,9.36
2023-02-24T21:28:47.677Z,9.26
2023-02-24T21:31:20.422Z,9.31
2023-02-24T21:33:52.931Z,9.19
2023-02-24T21:36:24.470Z,9.28
2023-02-24T21:38:53.231Z,9.21
2023-02-24T21:41:21.735Z,9.32
2023-02-24T21:43:54.923Z,9.30
2023-02-24T21:46:28.468Z,9.24
2023-02-24T21:48:59.340Z,9.05
2023-02-24T21:51:29.323Z,9.23
2023-02-24T21:53:58.453Z,9.36
2023-02-24T21:56:28.467Z,9.31
2023-02-24T21:58:59.684Z,9.31
2023-02-24T22:01:29.552Z,9.28
2023-02-24T22:04:01.393Z,9.26
2023-02-24T22:06:32.087Z,9.12
2023-02-24T22:09:01.612Z,9.06
2023-02-24T22:11:32.172Z,8.91
2023-02-24T22:14:00.468Z,9.09
2023-02-24T22:16:29.525Z,9.18
2023-02-24T22:18:59.027Z,9.09
2023-02-24T22:21:29.110Z,9.17
2023-02-24T22:24:04.824Z,9.19
2023-02-24T22:26:33.435Z,8.92
2023-02-24T22:29:02.585Z,8.74
2023-02-24T22:31:33.071Z,9.02
2023-02-24T22:34:02.578Z,8.82
2023-02-24T22:36:33.518Z,9.38
2023-02-24T22:39:02.936Z,9.20
2023-02-24T22:41:33.532Z,9.08
2023-02-24T22:44:03.071Z,9.01
2023-02-24T22:46:32.959Z,9.05
2023-02-24T22:49:03.146Z,8.57
2023-02-24T22:51:31.712Z,8.68
2023-02-24T22:53:59.753Z,8.21
2023-02-24T22:56:30.067Z,8.29
2023-02-24T22:58:58.848Z,8.61
2023-02-24T23:01:29.290Z,8.38
2023-02-24T23:03:59.999Z,8.37
2023-02-24T23:06:30.189Z,8.21
2023-02-24T23:09:00.223Z,7.95
2023-02-24T23:11:30.722Z,8.08
2023-02-24T23:14:00.635Z,8.51
2023-02-24T23:16:31.934Z,8.46
2023-02-24T23:19:01.864Z,8.52
2023-02-24T23:21:35.058Z,8.73
2023-02-24T23:24:04.153Z,8.68
2023-02-24T23:26:33.347Z,8.14
2023-02-24T23:29:01.424Z,8.20
2023-02-24T23:31:30.113Z,8.21
2023-02-24T23:33:58.241Z,8.40
2023-02-24T23:36:27.271Z,8.12
2023-02-24T23:38:58.014Z,8.14
2023-02-24T23:41:26.371Z,7.85
2023-02-24T23:43:54.642Z,7.92
2023-02-24T23:46:23.290Z,7.78
2023-02-24T23:48:57.376Z,7.26
2023-02-24T23:51:27.984Z,7.61
2023-02-24T23:54:00.639Z,7.33
2023-02-24T23:56:30.040Z,7.07
2023-02-24T23:58:59.612Z,7.35
